Montebello, Canada
Current Conditions -  °F | °C
As of 9:00 AM on Friday 24 Oct 2014 (Local Time) from CYND Reporting Station
Broken Clouds Broken Clouds  
Wind Chill: 50°   Ceiling: 10000
Heat Index: 50°   Visibility: 15mi
Dew Point: 39°   Wind: 3mph
Humidity: 66%   Direction: 250°WSW
Pressure: 29.94"   Gusts: NA
Location:  45.65°N, 74.93°W
Report Text: CYND 241300Z 25003KT 200V270 15SM SCT055 BKN100 BKN250 10/04 A2994 RMK SC3AC2CI1 CI TR SLP138
Loading
Personal Weather Stations






























Interactive Weather Map
Tropical Storm Tracking
New forecast layout! Learn more

10-Day Weather Forecast

Advertisements
Track Severe Weather on mobile